Rio Galeão – Tom Jobim International Airport

SBGL · Rio de Janeiro, 巴西

METAR的历史 SBGL · Rio Galeão – Tom Jobim International Airport

下面你可以看到过去几天的METARs。 选择年份以浏览从2007年开始的旧METAR。

2024年3月2日

时间 代码 天气 温度 能见度 天花板 METAR/SPECI
13:00
V
30 °C 10 km+ - 120° 120° 12 kt METAR SBGL 021600Z 12012KT 9999 FEW045 30/19 Q1014
12:00
V
30 °C 10 km+ - 120° 120° 11 kt METAR SBGL 021500Z 12011KT 9999 FEW045 30/17 Q1014
11:00
V
30 °C 10 km+ 5.000 ft 120° 120° 10 kt METAR SBGL 021400Z 12010KT 9999 SCT040 BKN050 30/19 Q1015
10:00
V
29 °C 10 km+ - 110° 110° 10 kt METAR SBGL 021300Z 11010KT 9999 SCT035 29/21 Q1015
09:00
V
28 °C 10 km+ - 110° 110° 11 kt METAR SBGL 021200Z 11011KT 9999 SCT030 28/20 Q1014
08:00
V
26 °C 10 km+ 3.500 ft 360° 360° 4 kt METAR SBGL 021100Z 36004KT 9999 SCT020 BKN035 26/22 Q1014
07:00
V
25 °C 10 km+ - 350° 350° 5 kt METAR SBGL 021000Z 35005KT 9999 SCT019 SCT023 25/22 Q1013
06:00
V
24 °C 10 km+ - 340° 340° 2 kt METAR SBGL 020900Z 34002KT 9999 SCT026 24/22 Q1012
05:00
V
24 °C 10 km+ - 360° 360° 0 kt METAR SBGL 020800Z 00000KT 9999 SCT026 24/21 Q1012
04:00
V
25 °C 8 km - 330° 330° 4 kt METAR SBGL 020700Z 33004KT 8000 SCT033 25/21 Q1012
03:00
V
25 °C 8 km - 310° 310° 4 kt METAR SBGL 020600Z 31004KT 8000 SCT033 25/21 Q1012
02:00
V
25 °C 8 km - 270° 270° 4 kt METAR SBGL 020500Z 27004KT 8000 SCT033 25/21 Q1012
01:00
V
26 °C 10 km+ - 210° 210° 2 kt METAR SBGL 020400Z 21002KT 9999 FEW017 SCT030 26/21 Q1013
00:00
V
26 °C 10 km+ - 200° 200° 4 kt METAR SBGL 020300Z 20004KT 9999 FEW017 SCT033 26/21 Q1013

2024年3月1日

时间 代码 天气 温度 能见度 天花板 METAR/SPECI
23:00
V
26 °C 10 km+ 3.300 ft 180° 180° 4 kt METAR SBGL 020200Z 18004KT 9999 FEW017 BKN033 26/21 Q1013
22:00
M
26 °C 10 km+ 2.300 ft 170° 170° 5 kt METAR SBGL 020100Z 17005KT 9999 SCT017 BKN023 26/21 Q1013
21:00
M
26 °C 10 km+ 2.300 ft 160° 160° 9 kt METAR SBGL 020000Z 16009KT 9999 SCT017 BKN023 26/22 Q1013
20:00
M
27 °C 10 km+ 2.300 ft 140° 140° 9 kt METAR SBGL 012300Z 14009KT 9999 FEW015 BKN023 27/22 Q1012
19:00
V
27 °C 10 km+ - 220° 220° 11 kt METAR SBGL 012200Z 22011KT 9999 SCT020 27/23 Q1011
18:00
V
28 °C 10 km+ - 220° 220° 11 kt METAR SBGL 012100Z 22011KT 9999 SCT015 28/23 Q1010
17:00
V
28 °C 10 km+ - 210° 210° 13 kt METAR SBGL 012000Z 21013KT 9999 SCT020 28/24 Q1010
16:00
V
30 °C 10 km+ - 220° 220° 17 kt METAR SBGL 011900Z 22017KT 9999 SCT025 30/23 Q1008
15:00
M
31 °C 10 km+ 2.500 ft 200° 200° 12 kt METAR SBGL 011800Z 20012KT 9999 BKN025 31/24 Q1008
14:00
M
31 °C 8 km 2.500 ft 150° 150° 10 kt METAR SBGL 011700Z 15010KT 8000 BKN025 31/25 Q1009
13:00
V
31 °C 8 km - 140° 140° 9 kt METAR SBGL 011600Z 14009KT 8000 SCT023 31/24 Q1009
12:00
V
32 °C 8 km - 130° 130° 9 kt METAR SBGL 011500Z 13009KT 8000 FEW023 32/25 Q1010
11:00
V
31 °C 10 km+ - 120° 120° 6 kt METAR SBGL 011400Z 12006KT 9999 FEW023 31/24 Q1010
10:00
M
31 °C 7 km - 040° 040° 5 kt METAR SBGL 011300Z 04005KT 7000 FEW020 31/25 Q1011
09:00
M
30 °C 7 km - 060° 060° 3 kt METAR SBGL 011200Z 06003KT 7000 SCT033 30/24 Q1011
08:00
M
28 °C 7 km - 040° 040° 6 kt METAR SBGL 011100Z 04006KT 7000 SCT033 28/24 Q1010
07:00
V
28 °C 10 km+ - 060° 060° 3 kt METAR SBGL 011000Z 06003KT 9999 FEW035 28/24 Q1010
06:00
V
26 °C 10 km+ - 350° 350° 2 kt METAR SBGL 010900Z 35002KT 9999 FEW035 26/24 Q1009
05:00
V
27 °C 10 km+ - 310° 310° 3 kt METAR SBGL 010800Z 31003KT 9999 FEW035 27/24 Q1010
04:00
V
27 °C 10 km+ 4.000 ft 300° 300° 3 kt METAR SBGL 010700Z 30003KT 9999 OVC040 27/23 Q1010
03:00
V
27 °C 10 km+ 4.000 ft 280° 280° 5 kt METAR SBGL 010600Z 28005KT 9999 OVC040 27/24 Q1010
02:00
V
27 °C 8 km - 340° 340° 5 kt METAR SBGL 010500Z 34005KT 8000 FEW008 27/24 Q1011
01:00
V
28 °C 8 km - 350° 350° 4 kt METAR SBGL 010400Z 35004KT 8000 FEW021 28/24 Q1011
00:00
M
28 °C 7 km - 340° 340° 4 kt METAR SBGL 010300Z 34004KT 7000 FEW018 SCT040 28/24 Q1011

2024年2月29日

时间 代码 天气 温度 能见度 天花板 METAR/SPECI
23:00
V
28 °C 10 km+ - 310° 310° 2 kt METAR SBGL 010200Z 31002KT 9999 FEW024 SCT060 28/24 Q1012
22:00
V
28 °C 10 km+ 4.000 ft 040° 040° 3 kt METAR SBGL 010100Z 04003KT 9999 SCT026 BKN040 BKN050 28/24 Q1012
21:00
V
28 °C 10 km+ 3.200 ft 080° 080° 2 kt METAR SBGL 010000Z 08002KT 9999 SCT027 BKN032 BKN040 28/24 Q1012
20:00
V
28 °C 10 km+ 5.000 ft 100° 100° 2 kt METAR SBGL 292300Z 10002KT 9999 FEW018 BKN050 28/24 Q1011
19:00
V
28 °C 10 km+ 5.000 ft 060° 060° 5 kt METAR SBGL 292200Z 06005KT 9999 FEW018 BKN050 28/23 Q1011
18:00
V
29 °C 10 km+ 5.000 ft 220° 220° 11 kt METAR SBGL 292100Z 22011KT 9999 FEW018 BKN050 29/22 Q1010
17:00
V
29 °C 10 km+ 5.000 ft 130° 130° 8 kt METAR SBGL 292000Z 13008KT 9999 FEW018 FEW025TCU BKN050 29/24 Q1010
16:00
V
31 °C 10 km+ - 140° 140° 10 kt METAR SBGL 291900Z 14010KT 9999 FEW018 SCT040 31/24 Q1010
15:00
V
32 °C 9 km - 130° 130° 8 kt METAR SBGL 291800Z 13008KT 9000 FEW018 SCT040 32/24 Q1010
14:00
V
31 °C 9 km 4.000 ft 120° 120° 8 kt METAR SBGL 291700Z 12008KT 9000 FEW018 BKN040 31/25 Q1010
13:00
V
31 °C 9 km - 130° 130° 10 kt METAR SBGL 291600Z 13010KT 9000 FEW018 SCT040 31/24 Q1011
12:00
V
32 °C 8 km - 120° 120° 11 kt METAR SBGL 291500Z 12011KT 8000 FEW020 SCT040 32/25 Q1012
11:00
V
31 °C 8 km - 140° 140° 10 kt METAR SBGL 291400Z 14010KT 8000 FEW017 SCT025 31/24 Q1012
10:00
V
31 °C 10 km+ - 340° 340° 5 kt METAR SBGL 291300Z 34005KT 9999 FEW015 SCT020 31/24 Q1012
09:00
V
30 °C 10 km+ - 010° 010° 6 kt METAR SBGL 291200Z 01006KT 9999 FEW015 SCT020 30/25 Q1012
08:00
V
28 °C 10 km+ - 330° 330° 5 kt METAR SBGL 291100Z 33005KT 9999 FEW015 28/24 Q1012
07:00
V
27 °C 10 km+ - 330° 330° 4 kt METAR SBGL 291000Z 33004KT 9999 FEW046 27/24 Q1012
06:00
V
26 °C 10 km+ - 330° 330° 4 kt METAR SBGL 290900Z 33004KT CAVOK 26/24 Q1011
05:00
V
26 °C 8 km - 340° 340° 5 kt METAR SBGL 290800Z 34005KT 8000 FEW040 26/24 Q1011
04:00
V
26 °C 8 km - 320° 320° 4 kt METAR SBGL 290700Z 32004KT 8000 FEW040 26/23 Q1010
03:00
V
26 °C 8 km - 330° 330° 4 kt METAR SBGL 290600Z 33004KT 8000 FEW040 26/23 Q1010